sensor_id;sensor_type;location;lat;lon;timestamp;P1;durP1;ratioP1;P2;durP2;ratioP2
11098;SDS011;12223;42.650;23.364;2023-01-15T00:00:47;24.03;;;22.00;;
11098;SDS011;12223;42.650;23.364;2023-01-15T00:03:14;20.20;;;18.17;;
11098;SDS011;12223;42.650;23.364;2023-01-15T00:05:41;19.77;;;16.97;;
11098;SDS011;12223;42.650;23.364;2023-01-15T00:08:08;24.83;;;22.37;;
11098;SDS011;12223;42.650;23.364;2023-01-15T00:10:36;44.77;;;41.57;;
11098;SDS011;12223;42.650;23.364;2023-01-15T00:13:13;24.90;;;22.50;;
11098;SDS011;12223;42.650;23.364;2023-01-15T00:15:41;19.93;;;16.97;;
11098;SDS011;12223;42.650;23.364;2023-01-15T00:18:10;22.60;;;20.53;;
11098;SDS011;12223;42.650;23.364;2023-01-15T00:20:39;23.83;;;21.57;;
11098;SDS011;12223;42.650;23.364;2023-01-15T00:23:07;34.53;;;31.83;;
11098;SDS011;12223;42.650;23.364;2023-01-15T00:25:57;18.93;;;15.27;;
11098;SDS011;12223;42.650;23.364;2023-01-15T00:28:43;20.07;;;15.63;;
11098;SDS011;12223;42.650;23.364;2023-01-15T00:31:14;23.57;;;21.30;;
11098;SDS011;12223;42.650;23.364;2023-01-15T00:33:41;21.77;;;14.23;;
11098;SDS011;12223;42.650;23.364;2023-01-15T00:36:09;21.20;;;16.17;;
11098;SDS011;12223;42.650;23.364;2023-01-15T00:38:36;19.40;;;14.20;;
11098;SDS011;12223;42.650;23.364;2023-01-15T00:41:04;18.67;;;14.93;;
11098;SDS011;12223;42.650;23.364;2023-01-15T00:43:31;18.13;;;15.17;;
11098;SDS011;12223;42.650;23.364;2023-01-15T00:45:57;18.53;;;14.73;;
11098;SDS011;12223;42.650;23.364;2023-01-15T00:48:24;18.57;;;15.23;;
11098;SDS011;12223;42.650;23.364;2023-01-15T00:50:51;18.53;;;15.10;;
11098;SDS011;12223;42.650;23.364;2023-01-15T00:53:18;21.80;;;14.67;;
11098;SDS011;12223;42.650;23.364;2023-01-15T00:55:45;18.27;;;14.87;;
11098;SDS011;12223;42.650;23.364;2023-01-15T00:58:13;17.97;;;15.13;;
11098;SDS011;12223;42.650;23.364;2023-01-15T01:00:40;20.40;;;16.10;;
11098;SDS011;12223;42.650;23.364;2023-01-15T01:03:08;19.67;;;17.30;;
11098;SDS011;12223;42.650;23.364;2023-01-15T01:05:35;21.33;;;18.83;;
11098;SDS011;12223;42.650;23.364;2023-01-15T01:08:02;21.93;;;18.20;;
11098;SDS011;12223;42.650;23.364;2023-01-15T01:10:29;20.50;;;17.43;;
11098;SDS011;12223;42.650;23.364;2023-01-15T01:12:56;18.83;;;15.57;;
11098;SDS011;12223;42.650;23.364;2023-01-15T01:15:24;20.70;;;15.80;;
11098;SDS011;12223;42.650;23.364;2023-01-15T01:17:51;21.43;;;16.13;;
11098;SDS011;12223;42.650;23.364;2023-01-15T01:20:18;18.73;;;15.33;;
11098;SDS011;12223;42.650;23.364;2023-01-15T01:22:47;21.53;;;15.47;;
11098;SDS011;12223;42.650;23.364;2023-01-15T01:25:13;21.20;;;15.50;;
11098;SDS011;12223;42.650;23.364;2023-01-15T01:27:42;20.47;;;15.53;;
11098;SDS011;12223;42.650;23.364;2023-01-15T01:30:10;19.73;;;14.77;;
11098;SDS011;12223;42.650;23.364;2023-01-15T01:32:39;22.83;;;16.20;;
11098;SDS011;12223;42.650;23.364;2023-01-15T01:35:09;21.17;;;17.53;;
11098;SDS011;12223;42.650;23.364;2023-01-15T01:40:27;21.60;;;17.37;;
11098;SDS011;12223;42.650;23.364;2023-01-15T01:42:53;23.43;;;17.30;;
11098;SDS011;12223;42.650;23.364;2023-01-15T01:45:21;22.80;;;18.70;;
11098;SDS011;12223;42.650;23.364;2023-01-15T01:47:53;26.67;;;18.57;;
11098;SDS011;12223;42.650;23.364;2023-01-15T01:50:24;26.70;;;20.00;;
11098;SDS011;12223;42.650;23.364;2023-01-15T01:53:08;29.17;;;22.17;;
11098;SDS011;12223;42.650;23.364;2023-01-15T01:55:39;22.97;;;18.13;;
11098;SDS011;12223;42.650;23.364;2023-01-15T01:58:06;23.93;;;18.93;;
11098;SDS011;12223;42.650;23.364;2023-01-15T02:00:36;25.80;;;19.60;;
11098;SDS011;12223;42.650;23.364;2023-01-15T02:03:07;26.03;;;19.87;;
11098;SDS011;12223;42.650;23.364;2023-01-15T02:05:36;24.17;;;19.20;;
11098;SDS011;12223;42.650;23.364;2023-01-15T02:08:05;25.50;;;20.03;;
11098;SDS011;12223;42.650;23.364;2023-01-15T02:10:32;23.90;;;17.93;;
11098;SDS011;12223;42.650;23.364;2023-01-15T02:13:00;22.63;;;17.70;;
11098;SDS011;12223;42.650;23.364;2023-01-15T02:15:33;24.10;;;17.60;;
11098;SDS011;12223;42.650;23.364;2023-01-15T02:18:09;22.00;;;16.90;;
11098;SDS011;12223;42.650;23.364;2023-01-15T02:20:43;25.00;;;19.73;;
11098;SDS011;12223;42.650;23.364;2023-01-15T02:26:26;23.90;;;20.80;;
11098;SDS011;12223;42.650;23.364;2023-01-15T02:29:11;24.00;;;21.50;;
11098;SDS011;12223;42.650;23.364;2023-01-15T02:31:42;22.63;;;17.60;;
11098;SDS011;12223;42.650;23.364;2023-01-15T02:34:14;23.93;;;16.40;;
11098;SDS011;12223;42.650;23.364;2023-01-15T02:36:46;19.87;;;17.13;;
11098;SDS011;12223;42.650;23.364;2023-01-15T02:39:18;23.53;;;17.47;;
11098;SDS011;12223;42.650;23.364;2023-01-15T02:41:51;21.30;;;16.97;;
11098;SDS011;12223;42.650;23.364;2023-01-15T02:44:21;22.27;;;16.37;;
11098;SDS011;12223;42.650;23.364;2023-01-15T02:46:50;24.50;;;19.63;;
11098;SDS011;12223;42.650;23.364;2023-01-15T02:49:18;22.53;;;16.57;;
11098;SDS011;12223;42.650;23.364;2023-01-15T02:51:49;21.30;;;17.03;;
11098;SDS011;12223;42.650;23.364;2023-01-15T02:54:21;21.10;;;16.43;;
11098;SDS011;12223;42.650;23.364;2023-01-15T02:57:03;21.20;;;16.67;;
11098;SDS011;12223;42.650;23.364;2023-01-15T02:59:32;21.33;;;16.47;;
11098;SDS011;12223;42.650;23.364;2023-01-15T03:02:04;22.20;;;16.43;;
11098;SDS011;12223;42.650;23.364;2023-01-15T03:04:36;18.63;;;15.53;;
11098;SDS011;12223;42.650;23.364;2023-01-15T03:07:08;23.70;;;16.73;;
11098;SDS011;12223;42.650;23.364;2023-01-15T03:09:39;21.40;;;16.40;;
11098;SDS011;12223;42.650;23.364;2023-01-15T03:12:09;21.87;;;18.13;;
11098;SDS011;12223;42.650;23.364;2023-01-15T03:14:41;23.17;;;18.30;;
11098;SDS011;12223;42.650;23.364;2023-01-15T03:17:13;22.07;;;17.43;;
11098;SDS011;12223;42.650;23.364;2023-01-15T03:19:44;25.93;;;21.57;;
11098;SDS011;12223;42.650;23.364;2023-01-15T03:22:15;31.40;;;21.20;;
11098;SDS011;12223;42.650;23.364;2023-01-15T03:24:46;27.57;;;21.20;;
11098;SDS011;12223;42.650;23.364;2023-01-15T03:27:17;26.77;;;21.30;;
11098;SDS011;12223;42.650;23.364;2023-01-15T03:29:45;25.17;;;20.80;;
11098;SDS011;12223;42.650;23.364;2023-01-15T03:32:13;24.63;;;19.83;;
11098;SDS011;12223;42.650;23.364;2023-01-15T03:34:41;27.13;;;19.67;;
11098;SDS011;12223;42.650;23.364;2023-01-15T03:37:11;29.00;;;25.20;;
11098;SDS011;12223;42.650;23.364;2023-01-15T03:39:38;25.93;;;22.77;;
11098;SDS011;12223;42.650;23.364;2023-01-15T03:42:09;24.10;;;17.90;;
11098;SDS011;12223;42.650;23.364;2023-01-15T03:44:48;23.83;;;18.17;;
11098;SDS011;12223;42.650;23.364;2023-01-15T03:47:28;28.17;;;23.20;;
11098;SDS011;12223;42.650;23.364;2023-01-15T03:50:02;24.83;;;22.33;;
11098;SDS011;12223;42.650;23.364;2023-01-15T03:52:42;28.27;;;25.57;;
11098;SDS011;12223;42.650;23.364;2023-01-15T03:55:13;20.70;;;15.53;;
11098;SDS011;12223;42.650;23.364;2023-01-15T03:57:44;22.00;;;15.47;;
11098;SDS011;12223;42.650;23.364;2023-01-15T04:00:17;22.87;;;16.00;;
11098;SDS011;12223;42.650;23.364;2023-01-15T04:02:47;20.30;;;15.73;;
11098;SDS011;12223;42.650;23.364;2023-01-15T04:05:16;21.53;;;15.77;;
11098;SDS011;12223;42.650;23.364;2023-01-15T04:07:44;18.87;;;14.47;;
11098;SDS011;12223;42.650;23.364;2023-01-15T04:10:12;21.67;;;14.40;;
11098;SDS011;12223;42.650;23.364;2023-01-15T04:12:39;18.90;;;14.43;;
11098;SDS011;12223;42.650;23.364;2023-01-15T04:15:06;20.07;;;13.47;;
11098;SDS011;12223;42.650;23.364;2023-01-15T04:17:35;19.20;;;14.47;;
11098;SDS011;12223;42.650;23.364;2023-01-15T04:20:02;19.37;;;15.27;;
11098;SDS011;12223;42.650;23.364;2023-01-15T04:22:29;24.00;;;17.17;;
11098;SDS011;12223;42.650;23.364;2023-01-15T04:24:57;25.20;;;21.67;;
11098;SDS011;12223;42.650;23.364;2023-01-15T04:27:24;30.53;;;27.43;;
11098;SDS011;12223;42.650;23.364;2023-01-15T04:29:51;29.80;;;25.83;;
11098;SDS011;12223;42.650;23.364;2023-01-15T04:32:18;28.37;;;24.60;;
11098;SDS011;12223;42.650;23.364;2023-01-15T04:34:46;26.23;;;23.37;;
11098;SDS011;12223;42.650;23.364;2023-01-15T04:37:13;24.77;;;20.60;;
11098;SDS011;12223;42.650;23.364;2023-01-15T04:39:40;29.33;;;18.20;;
11098;SDS011;12223;42.650;23.364;2023-01-15T04:42:09;24.00;;;18.53;;
11098;SDS011;12223;42.650;23.364;2023-01-15T04:44:55;25.07;;;22.10;;
11098;SDS011;12223;42.650;23.364;2023-01-15T04:47:22;28.20;;;25.60;;
11098;SDS011;12223;42.650;23.364;2023-01-15T04:49:50;30.13;;;27.23;;
11098;SDS011;12223;42.650;23.364;2023-01-15T04:52:16;28.63;;;25.63;;
11098;SDS011;12223;42.650;23.364;2023-01-15T04:54:43;31.80;;;28.27;;
11098;SDS011;12223;42.650;23.364;2023-01-15T04:57:10;41.70;;;31.90;;
11098;SDS011;12223;42.650;23.364;2023-01-15T04:59:37;38.83;;;27.13;;
11098;SDS011;12223;42.650;23.364;2023-01-15T05:02:04;28.40;;;22.67;;
11098;SDS011;12223;42.650;23.364;2023-01-15T05:04:31;28.67;;;21.27;;
11098;SDS011;12223;42.650;23.364;2023-01-15T05:06:59;29.10;;;21.70;;
11098;SDS011;12223;42.650;23.364;2023-01-15T05:09:26;26.30;;;20.63;;
11098;SDS011;12223;42.650;23.364;2023-01-15T05:11:53;24.17;;;19.13;;
11098;SDS011;12223;42.650;23.364;2023-01-15T05:14:22;24.23;;;17.77;;
11098;SDS011;12223;42.650;23.364;2023-01-15T05:16:49;23.57;;;18.07;;
11098;SDS011;12223;42.650;23.364;2023-01-15T05:19:16;27.13;;;18.30;;
11098;SDS011;12223;42.650;23.364;2023-01-15T05:21:43;21.67;;;18.17;;
11098;SDS011;12223;42.650;23.364;2023-01-15T05:24:13;25.27;;;18.17;;
11098;SDS011;12223;42.650;23.364;2023-01-15T05:26:41;25.30;;;18.90;;
11098;SDS011;12223;42.650;23.364;2023-01-15T05:29:09;22.60;;;16.73;;
11098;SDS011;12223;42.650;23.364;2023-01-15T05:31:37;28.13;;;20.50;;
11098;SDS011;12223;42.650;23.364;2023-01-15T05:34:05;23.17;;;19.33;;
11098;SDS011;12223;42.650;23.364;2023-01-15T05:36:32;23.07;;;18.97;;
11098;SDS011;12223;42.650;23.364;2023-01-15T05:39:01;26.23;;;23.53;;
11098;SDS011;12223;42.650;23.364;2023-01-15T05:41:30;30.47;;;27.67;;
11098;SDS011;12223;42.650;23.364;2023-01-15T05:44:16;28.77;;;25.03;;
11098;SDS011;12223;42.650;23.364;2023-01-15T05:46:44;28.23;;;25.47;;
11098;SDS011;12223;42.650;23.364;2023-01-15T05:49:13;25.40;;;20.37;;
11098;SDS011;12223;42.650;23.364;2023-01-15T05:51:43;30.47;;;26.37;;
11098;SDS011;12223;42.650;23.364;2023-01-15T05:54:11;27.90;;;24.37;;
11098;SDS011;12223;42.650;23.364;2023-01-15T05:56:40;26.50;;;23.20;;
11098;SDS011;12223;42.650;23.364;2023-01-15T05:59:09;25.67;;;20.73;;
11098;SDS011;12223;42.650;23.364;2023-01-15T06:01:37;24.80;;;20.67;;
11098;SDS011;12223;42.650;23.364;2023-01-15T06:04:04;27.50;;;19.93;;
11098;SDS011;12223;42.650;23.364;2023-01-15T06:09:08;40.80;;;28.20;;
11098;SDS011;12223;42.650;23.364;2023-01-15T06:11:35;42.53;;;28.57;;
11098;SDS011;12223;42.650;23.364;2023-01-15T06:14:03;38.83;;;28.00;;
11098;SDS011;12223;42.650;23.364;2023-01-15T06:16:30;39.70;;;31.47;;
11098;SDS011;12223;42.650;23.364;2023-01-15T06:18:59;37.27;;;26.80;;
11098;SDS011;12223;42.650;23.364;2023-01-15T06:21:28;32.70;;;29.23;;
11098;SDS011;12223;42.650;23.364;2023-01-15T06:24:02;38.93;;;33.73;;
11098;SDS011;12223;42.650;23.364;2023-01-15T06:26:30;31.73;;;24.57;;
11098;SDS011;12223;42.650;23.364;2023-01-15T06:28:59;38.00;;;30.73;;
11098;SDS011;12223;42.650;23.364;2023-01-15T06:31:28;33.57;;;30.10;;
11098;SDS011;12223;42.650;23.364;2023-01-15T06:33:56;33.90;;;30.43;;
11098;SDS011;12223;42.650;23.364;2023-01-15T06:36:24;32.13;;;27.83;;
11098;SDS011;12223;42.650;23.364;2023-01-15T06:38:57;37.70;;;33.73;;
11098;SDS011;12223;42.650;23.364;2023-01-15T06:41:24;33.30;;;28.03;;
11098;SDS011;12223;42.650;23.364;2023-01-15T06:44:10;27.43;;;21.37;;
11098;SDS011;12223;42.650;23.364;2023-01-15T06:46:57;25.57;;;19.73;;
11098;SDS011;12223;42.650;23.364;2023-01-15T06:49:44;29.37;;;26.07;;
11098;SDS011;12223;42.650;23.364;2023-01-15T06:52:11;30.83;;;28.07;;
11098;SDS011;12223;42.650;23.364;2023-01-15T06:54:46;26.37;;;22.37;;
11098;SDS011;12223;42.650;23.364;2023-01-15T06:57:13;30.30;;;21.53;;
11098;SDS011;12223;42.650;23.364;2023-01-15T06:59:40;24.33;;;20.57;;
11098;SDS011;12223;42.650;23.364;2023-01-15T07:02:09;29.77;;;24.13;;
11098;SDS011;12223;42.650;23.364;2023-01-15T07:04:36;29.13;;;22.57;;
11098;SDS011;12223;42.650;23.364;2023-01-15T07:07:03;25.73;;;20.23;;
11098;SDS011;12223;42.650;23.364;2023-01-15T07:09:31;28.07;;;24.07;;
11098;SDS011;12223;42.650;23.364;2023-01-15T07:11:59;27.37;;;20.17;;
11098;SDS011;12223;42.650;23.364;2023-01-15T07:14:27;30.47;;;20.57;;
11098;SDS011;12223;42.650;23.364;2023-01-15T07:16:55;28.20;;;25.37;;
11098;SDS011;12223;42.650;23.364;2023-01-15T07:19:24;31.13;;;28.03;;
11098;SDS011;12223;42.650;23.364;2023-01-15T07:21:51;24.17;;;21.67;;
11098;SDS011;12223;42.650;23.364;2023-01-15T07:24:18;25.07;;;17.30;;
11098;SDS011;12223;42.650;23.364;2023-01-15T07:26:45;24.67;;;17.73;;
11098;SDS011;12223;42.650;23.364;2023-01-15T07:29:12;22.23;;;18.47;;
11098;SDS011;12223;42.650;23.364;2023-01-15T07:31:40;25.80;;;19.97;;
11098;SDS011;12223;42.650;23.364;2023-01-15T07:34:07;23.43;;;16.83;;
11098;SDS011;12223;42.650;23.364;2023-01-15T07:36:35;22.23;;;17.67;;
11098;SDS011;12223;42.650;23.364;2023-01-15T07:39:02;23.97;;;18.30;;
11098;SDS011;12223;42.650;23.364;2023-01-15T07:41:30;22.13;;;16.80;;
11098;SDS011;12223;42.650;23.364;2023-01-15T07:44:14;22.70;;;17.80;;
11098;SDS011;12223;42.650;23.364;2023-01-15T07:46:58;17.13;;;13.77;;
11098;SDS011;12223;42.650;23.364;2023-01-15T07:49:42;22.57;;;20.47;;
11098;SDS011;12223;42.650;23.364;2023-01-15T07:52:15;25.80;;;23.57;;
11098;SDS011;12223;42.650;23.364;2023-01-15T07:54:43;18.27;;;16.27;;
11098;SDS011;12223;42.650;23.364;2023-01-15T07:57:10;17.17;;;13.70;;
11098;SDS011;12223;42.650;23.364;2023-01-15T07:59:39;17.00;;;13.83;;
11098;SDS011;12223;42.650;23.364;2023-01-15T08:02:06;15.67;;;14.17;;
11098;SDS011;12223;42.650;23.364;2023-01-15T08:04:33;16.33;;;14.63;;
11098;SDS011;12223;42.650;23.364;2023-01-15T08:07:00;24.87;;;15.53;;
11098;SDS011;12223;42.650;23.364;2023-01-15T08:09:28;17.47;;;15.63;;
11098;SDS011;12223;42.650;23.364;2023-01-15T08:11:57;21.03;;;16.90;;
11098;SDS011;12223;42.650;23.364;2023-01-15T08:14:42;18.83;;;16.83;;
11098;SDS011;12223;42.650;23.364;2023-01-15T08:17:26;16.83;;;14.90;;
11098;SDS011;12223;42.650;23.364;2023-01-15T08:19:59;18.10;;;14.63;;
11098;SDS011;12223;42.650;23.364;2023-01-15T08:22:28;20.10;;;17.97;;
11098;SDS011;12223;42.650;23.364;2023-01-15T08:24:56;18.23;;;15.40;;
11098;SDS011;12223;42.650;23.364;2023-01-15T08:27:23;17.60;;;14.40;;
11098;SDS011;12223;42.650;23.364;2023-01-15T08:29:50;18.47;;;15.43;;
11098;SDS011;12223;42.650;23.364;2023-01-15T08:32:17;20.53;;;15.20;;
11098;SDS011;12223;42.650;23.364;2023-01-15T08:34:45;21.27;;;15.77;;
11098;SDS011;12223;42.650;23.364;2023-01-15T08:37:12;20.77;;;15.97;;
11098;SDS011;12223;42.650;23.364;2023-01-15T08:39:39;21.03;;;17.53;;
11098;SDS011;12223;42.650;23.364;2023-01-15T08:42:07;21.80;;;17.60;;
11098;SDS011;12223;42.650;23.364;2023-01-15T08:44:34;22.60;;;17.83;;
11098;SDS011;12223;42.650;23.364;2023-01-15T08:47:01;19.67;;;15.97;;
11098;SDS011;12223;42.650;23.364;2023-01-15T08:49:34;32.70;;;18.30;;
11098;SDS011;12223;42.650;23.364;2023-01-15T08:52:02;28.87;;;17.53;;
11098;SDS011;12223;42.650;23.364;2023-01-15T08:54:30;26.20;;;23.57;;
11098;SDS011;12223;42.650;23.364;2023-01-15T08:56:57;23.53;;;20.80;;
11098;SDS011;12223;42.650;23.364;2023-01-15T08:59:26;21.50;;;19.00;;
11098;SDS011;12223;42.650;23.364;2023-01-15T09:01:53;26.00;;;18.77;;
11098;SDS011;12223;42.650;23.364;2023-01-15T09:04:20;23.60;;;16.10;;
11098;SDS011;12223;42.650;23.364;2023-01-15T09:06:47;19.53;;;15.07;;
11098;SDS011;12223;42.650;23.364;2023-01-15T09:09:15;17.63;;;15.00;;
11098;SDS011;12223;42.650;23.364;2023-01-15T09:11:43;20.93;;;15.07;;
11098;SDS011;12223;42.650;23.364;2023-01-15T09:14:11;20.87;;;15.63;;
11098;SDS011;12223;42.650;23.364;2023-01-15T09:16:40;17.43;;;14.73;;
11098;SDS011;12223;42.650;23.364;2023-01-15T09:19:08;22.43;;;15.47;;
11098;SDS011;12223;42.650;23.364;2023-01-15T09:21:35;31.17;;;14.63;;
11098;SDS011;12223;42.650;23.364;2023-01-15T09:24:02;19.80;;;14.63;;
11098;SDS011;12223;42.650;23.364;2023-01-15T09:26:30;21.90;;;15.60;;
11098;SDS011;12223;42.650;23.364;2023-01-15T09:28:58;18.20;;;15.67;;
11098;SDS011;12223;42.650;23.364;2023-01-15T09:31:25;22.83;;;17.50;;
11098;SDS011;12223;42.650;23.364;2023-01-15T09:33:54;26.30;;;18.80;;
11098;SDS011;12223;42.650;23.364;2023-01-15T09:36:22;20.20;;;16.30;;
11098;SDS011;12223;42.650;23.364;2023-01-15T09:38:51;18.67;;;15.50;;
11098;SDS011;12223;42.650;23.364;2023-01-15T09:41:19;20.57;;;16.13;;
11098;SDS011;12223;42.650;23.364;2023-01-15T09:44:09;20.53;;;16.77;;
11098;SDS011;12223;42.650;23.364;2023-01-15T09:49:33;22.37;;;15.40;;
11098;SDS011;12223;42.650;23.364;2023-01-15T09:52:11;20.63;;;15.67;;
11098;SDS011;12223;42.650;23.364;2023-01-15T09:54:45;21.23;;;16.07;;
11098;SDS011;12223;42.650;23.364;2023-01-15T09:57:21;23.77;;;16.60;;
11098;SDS011;12223;42.650;23.364;2023-01-15T09:59:51;24.47;;;17.23;;
11098;SDS011;12223;42.650;23.364;2023-01-15T10:02:26;19.70;;;15.40;;
11098;SDS011;12223;42.650;23.364;2023-01-15T10:04:58;20.00;;;15.13;;
11098;SDS011;12223;42.650;23.364;2023-01-15T10:07:32;19.90;;;16.10;;
11098;SDS011;12223;42.650;23.364;2023-01-15T10:10:09;26.90;;;19.60;;
11098;SDS011;12223;42.650;23.364;2023-01-15T10:12:39;27.30;;;24.10;;
11098;SDS011;12223;42.650;23.364;2023-01-15T10:15:24;24.63;;;19.73;;
11098;SDS011;12223;42.650;23.364;2023-01-15T10:18:01;22.57;;;17.97;;
11098;SDS011;12223;42.650;23.364;2023-01-15T10:20:39;24.70;;;17.07;;
11098;SDS011;12223;42.650;23.364;2023-01-15T10:23:34;38.90;;;19.37;;
11098;SDS011;12223;42.650;23.364;2023-01-15T10:26:14;28.50;;;25.60;;
11098;SDS011;12223;42.650;23.364;2023-01-15T10:28:59;26.30;;;21.37;;
11098;SDS011;12223;42.650;23.364;2023-01-15T10:31:48;23.50;;;17.60;;
11098;SDS011;12223;42.650;23.364;2023-01-15T10:34:26;24.23;;;18.03;;
11098;SDS011;12223;42.650;23.364;2023-01-15T10:37:11;24.07;;;21.57;;
11098;SDS011;12223;42.650;23.364;2023-01-15T10:39:46;20.60;;;16.40;;
11098;SDS011;12223;42.650;23.364;2023-01-15T10:42:28;18.50;;;15.13;;
11098;SDS011;12223;42.650;23.364;2023-01-15T10:45:08;21.57;;;16.13;;
11098;SDS011;12223;42.650;23.364;2023-01-15T10:47:39;27.63;;;19.73;;
11098;SDS011;12223;42.650;23.364;2023-01-15T10:50:12;21.53;;;19.33;;
11098;SDS011;12223;42.650;23.364;2023-01-15T10:52:46;20.10;;;16.40;;
11098;SDS011;12223;42.650;23.364;2023-01-15T10:55:17;18.77;;;16.50;;
11098;SDS011;12223;42.650;23.364;2023-01-15T10:57:51;23.40;;;20.47;;
11098;SDS011;12223;42.650;23.364;2023-01-15T11:00:23;29.03;;;25.87;;
11098;SDS011;12223;42.650;23.364;2023-01-15T11:02:53;21.80;;;19.50;;
11098;SDS011;12223;42.650;23.364;2023-01-15T11:05:26;21.50;;;19.20;;
11098;SDS011;12223;42.650;23.364;2023-01-15T11:07:55;24.53;;;22.27;;
11098;SDS011;12223;42.650;23.364;2023-01-15T11:10:25;21.50;;;19.23;;
11098;SDS011;12223;42.650;23.364;2023-01-15T11:12:53;23.60;;;16.60;;
11098;SDS011;12223;42.650;23.364;2023-01-15T11:15:39;17.87;;;14.20;;
11098;SDS011;12223;42.650;23.364;2023-01-15T11:18:27;17.03;;;15.23;;
11098;SDS011;12223;42.650;23.364;2023-01-15T11:21:16;20.90;;;15.30;;
11098;SDS011;12223;42.650;23.364;2023-01-15T11:23:46;18.03;;;16.27;;
11098;SDS011;12223;42.650;23.364;2023-01-15T11:26:19;15.77;;;14.10;;
11098;SDS011;12223;42.650;23.364;2023-01-15T11:28:50;18.43;;;13.97;;
11098;SDS011;12223;42.650;23.364;2023-01-15T11:31:18;20.13;;;15.20;;
11098;SDS011;12223;42.650;23.364;2023-01-15T11:33:54;19.67;;;17.70;;
11098;SDS011;12223;42.650;23.364;2023-01-15T11:36:24;25.33;;;23.03;;
11098;SDS011;12223;42.650;23.364;2023-01-15T11:38:54;22.13;;;20.03;;
11098;SDS011;12223;42.650;23.364;2023-01-15T11:41:22;22.60;;;19.97;;
11098;SDS011;12223;42.650;23.364;2023-01-15T11:44:14;24.57;;;20.00;;
11098;SDS011;12223;42.650;23.364;2023-01-15T11:46:59;17.23;;;15.57;;
11098;SDS011;12223;42.650;23.364;2023-01-15T11:49:48;20.17;;;14.60;;
11098;SDS011;12223;42.650;23.364;2023-01-15T11:52:33;17.03;;;14.13;;
11098;SDS011;12223;42.650;23.364;2023-01-15T11:55:14;16.70;;;13.83;;
11098;SDS011;12223;42.650;23.364;2023-01-15T11:57:45;16.73;;;13.33;;
11098;SDS011;12223;42.650;23.364;2023-01-15T12:00:20;13.37;;;12.17;;
11098;SDS011;12223;42.650;23.364;2023-01-15T12:02:48;12.80;;;11.47;;
11098;SDS011;12223;42.650;23.364;2023-01-15T12:05:35;14.57;;;13.07;;
11098;SDS011;12223;42.650;23.364;2023-01-15T12:08:12;13.83;;;12.43;;
11098;SDS011;12223;42.650;23.364;2023-01-15T12:10:48;15.53;;;14.00;;
11098;SDS011;12223;42.650;23.364;2023-01-15T12:13:37;15.37;;;13.87;;
11098;SDS011;12223;42.650;23.364;2023-01-15T12:16:11;23.73;;;21.10;;
11098;SDS011;12223;42.650;23.364;2023-01-15T12:18:52;15.07;;;13.57;;
11098;SDS011;12223;42.650;23.364;2023-01-15T12:21:30;12.73;;;11.63;;
11098;SDS011;12223;42.650;23.364;2023-01-15T12:24:13;11.43;;;10.33;;
11098;SDS011;12223;42.650;23.364;2023-01-15T12:27:00;13.87;;;12.57;;
11098;SDS011;12223;42.650;23.364;2023-01-15T12:29:38;20.63;;;13.43;;
11098;SDS011;12223;42.650;23.364;2023-01-15T12:32:09;13.53;;;12.23;;
11098;SDS011;12223;42.650;23.364;2023-01-15T12:34:41;14.77;;;13.13;;
11098;SDS011;12223;42.650;23.364;2023-01-15T12:37:16;13.30;;;12.10;;
11098;SDS011;12223;42.650;23.364;2023-01-15T12:39:47;15.37;;;14.10;;
11098;SDS011;12223;42.650;23.364;2023-01-15T12:42:19;13.90;;;12.60;;
11098;SDS011;12223;42.650;23.364;2023-01-15T12:45:07;12.63;;;11.33;;
11098;SDS011;12223;42.650;23.364;2023-01-15T12:47:41;22.00;;;20.50;;
11098;SDS011;12223;42.650;23.364;2023-01-15T12:50:21;13.57;;;11.03;;
11098;SDS011;12223;42.650;23.364;2023-01-15T12:52:58;23.17;;;21.53;;
11098;SDS011;12223;42.650;23.364;2023-01-15T12:55:36;50.50;;;47.67;;
11098;SDS011;12223;42.650;23.364;2023-01-15T12:58:29;82.93;;;78.63;;
11098;SDS011;12223;42.650;23.364;2023-01-15T13:01:03;39.83;;;37.60;;
11098;SDS011;12223;42.650;23.364;2023-01-15T13:03:45;16.70;;;15.20;;
11098;SDS011;12223;42.650;23.364;2023-01-15T13:06:19;10.70;;;9.70;;
11098;SDS011;12223;42.650;23.364;2023-01-15T13:08:53;11.90;;;10.80;;
11098;SDS011;12223;42.650;23.364;2023-01-15T13:11:26;12.87;;;11.67;;
11098;SDS011;12223;42.650;23.364;2023-01-15T13:13:56;14.07;;;12.87;;
11098;SDS011;12223;42.650;23.364;2023-01-15T13:16:26;15.10;;;13.23;;
11098;SDS011;12223;42.650;23.364;2023-01-15T13:19:09;14.80;;;13.50;;
11098;SDS011;12223;42.650;23.364;2023-01-15T13:21:43;14.43;;;12.53;;
11098;SDS011;12223;42.650;23.364;2023-01-15T13:24:22;12.57;;;11.37;;
11098;SDS011;12223;42.650;23.364;2023-01-15T13:27:09;13.13;;;11.13;;
11098;SDS011;12223;42.650;23.364;2023-01-15T13:29:51;20.03;;;15.63;;
11098;SDS011;12223;42.650;23.364;2023-01-15T13:32:30;17.83;;;14.00;;
11098;SDS011;12223;42.650;23.364;2023-01-15T13:35:08;14.80;;;13.40;;
11098;SDS011;12223;42.650;23.364;2023-01-15T13:37:39;16.70;;;14.83;;
11098;SDS011;12223;42.650;23.364;2023-01-15T13:40:15;14.27;;;12.83;;
11098;SDS011;12223;42.650;23.364;2023-01-15T13:42:52;16.20;;;14.50;;
11098;SDS011;12223;42.650;23.364;2023-01-15T13:45:23;14.03;;;12.83;;
11098;SDS011;12223;42.650;23.364;2023-01-15T13:48:01;15.63;;;14.20;;
11098;SDS011;12223;42.650;23.364;2023-01-15T13:50:32;15.67;;;14.10;;
11098;SDS011;12223;42.650;23.364;2023-01-15T13:53:02;14.00;;;12.70;;
11098;SDS011;12223;42.650;23.364;2023-01-15T13:55:33;14.53;;;13.30;;
11098;SDS011;12223;42.650;23.364;2023-01-15T13:58:15;12.07;;;10.97;;
11098;SDS011;12223;42.650;23.364;2023-01-15T14:00:46;20.70;;;19.10;;
11098;SDS011;12223;42.650;23.364;2023-01-15T14:03:23;15.70;;;14.10;;
11098;SDS011;12223;42.650;23.364;2023-01-15T14:05:55;14.57;;;13.20;;
11098;SDS011;12223;42.650;23.364;2023-01-15T14:08:24;13.00;;;11.70;;
11098;SDS011;12223;42.650;23.364;2023-01-15T14:10:53;13.37;;;12.17;;
11098;SDS011;12223;42.650;23.364;2023-01-15T14:13:31;23.93;;;22.03;;
11098;SDS011;12223;42.650;23.364;2023-01-15T14:16:19;32.57;;;30.27;;
11098;SDS011;12223;42.650;23.364;2023-01-15T14:19:02;14.07;;;12.67;;
11098;SDS011;12223;42.650;23.364;2023-01-15T14:21:47;11.70;;;10.60;;
11098;SDS011;12223;42.650;23.364;2023-01-15T14:24:28;11.57;;;10.37;;
11098;SDS011;12223;42.650;23.364;2023-01-15T14:27:20;14.23;;;11.77;;
11098;SDS011;12223;42.650;23.364;2023-01-15T14:30:25;13.97;;;12.67;;
11098;SDS011;12223;42.650;23.364;2023-01-15T14:33:06;14.20;;;12.90;;
11098;SDS011;12223;42.650;23.364;2023-01-15T14:35:43;18.10;;;16.50;;
11098;SDS011;12223;42.650;23.364;2023-01-15T14:38:12;25.23;;;23.37;;
11098;SDS011;12223;42.650;23.364;2023-01-15T14:40:51;12.80;;;11.50;;
11098;SDS011;12223;42.650;23.364;2023-01-15T14:43:24;15.77;;;13.90;;
11098;SDS011;12223;42.650;23.364;2023-01-15T14:45:53;16.27;;;12.67;;
11098;SDS011;12223;42.650;23.364;2023-01-15T14:48:36;18.03;;;13.50;;